Time;durP1;ratioP1;P1;durP2;ratioP2;P2;SDS_P1;SDS_P2;PMS_P1;PMS_P2;Temp;Humidity;BMP_temperature;BMP_pressure;BME280_temperature;BME280_humidity;BME280_pressure;Samples;Min_cycle;Max_cycle;Signal;HPM_P1;HPM_P2
2022/01/02 00:00:19;;;;;;;10.95;6.10;;;;;;;20.81;56.93;100386.59;4228883;28;20043;-55
2022/01/02 00:02:30;;;;;;;10.30;6.18;;;;;;;20.81;57.10;100383.00;4230074;28;20040;-48
2022/01/02 00:04:36;;;;;;;12.05;6.97;;;;;;;20.80;57.07;100379.38;4227584;28;20039;-49
2022/01/02 00:06:52;;;;;;;14.23;6.85;;;;;;;20.81;57.22;100369.91;4226646;28;20551;-53
2022/01/02 00:09:05;;;;;;;11.88;6.60;;;;;;;20.80;56.94;100362.69;4227133;28;20117;-50
2022/01/02 00:11:12;;;;;;;13.32;6.38;;;;;;;20.79;57.11;100349.91;4221248;28;20048;-48
2022/01/02 00:13:33;;;;;;;13.93;7.10;;;;;;;20.80;56.84;100340.47;4224156;28;20039;-53
2022/01/02 00:15:37;;;;;;;10.95;6.05;;;;;;;20.80;56.92;100347.94;4225886;28;20107;-50
2022/01/02 00:17:39;;;;;;;13.30;7.00;;;;;;;20.79;56.77;100338.78;4229559;28;20074;-52
2022/01/02 00:19:46;;;;;;;13.45;6.53;;;;;;;20.81;56.73;100319.84;4228367;28;20043;-51
2022/01/02 00:21:49;;;;;;;10.65;6.75;;;;;;;20.81;56.85;100303.19;4225179;28;20645;-55
2022/01/02 00:24:01;;;;;;;12.05;7.53;;;;;;;20.80;57.09;100301.53;4218315;28;20436;-52
2022/01/02 00:26:06;;;;;;;13.57;7.03;;;;;;;20.81;57.22;100291.22;4224243;28;20043;-52
2022/01/02 00:28:12;;;;;;;13.88;7.60;;;;;;;20.80;56.84;100270.94;4222830;28;20494;-51
2022/01/02 00:30:14;;;;;;;15.10;7.93;;;;;;;20.80;56.71;100268.16;4239943;28;20081;-51
2022/01/02 00:32:18;;;;;;;19.80;7.97;;;;;;;20.81;57.17;100269.81;4240095;27;20043;-49
2022/01/02 00:34:20;;;;;;;16.23;7.95;;;;;;;20.78;57.12;100264.00;4234949;28;20456;-50
2022/01/02 00:36:21;;;;;;;12.68;7.28;;;;;;;20.79;56.95;100272.03;4230522;28;20093;-51
2022/01/02 00:38:23;;;;;;;14.02;8.10;;;;;;;20.80;57.17;100273.72;4242325;28;20084;-51
2022/01/02 00:40:25;;;;;;;12.23;7.82;;;;;;;20.79;57.08;100277.59;4241971;28;20088;-50
2022/01/02 00:42:31;;;;;;;12.27;7.20;;;;;;;20.79;57.02;100305.41;4232416;28;20032;-49
2022/01/02 00:44:42;;;;;;;14.77;7.60;;;;;;;20.79;57.24;100322.09;4220635;28;20074;-51
2022/01/02 00:47:24;;;;;;;12.48;8.38;;;;;;;20.77;57.08;100282.66;4222459;27;20039;-48
2022/01/02 00:49:26;;;;;;;12.50;8.10;;;;;;;20.81;57.14;100278.16;4229169;28;20502;-49
2022/01/02 00:51:48;;;;;;;15.18;8.48;;;;;;;20.81;57.16;100255.91;4230741;28;20028;-55
2022/01/02 00:53:54;;;;;;;13.35;8.65;;;;;;;20.75;57.16;100247.91;4225339;28;20040;-53
2022/01/02 00:56:00;;;;;;;11.93;7.75;;;;;;;20.81;57.24;100249.50;4218883;28;20036;-52
2022/01/02 00:58:07;;;;;;;11.30;7.60;;;;;;;20.81;56.98;100244.78;4219161;28;20044;-52
2022/01/02 01:00:17;;;;;;;14.18;8.30;;;;;;;20.73;57.04;100239.88;4229209;27;20039;-54
2022/01/02 01:02:33;;;;;;;12.98;8.43;;;;;;;20.80;57.10;100245.06;4245801;27;20088;-54
2022/01/02 01:04:38;;;;;;;;;;;;;;;20.79;57.20;100237.84;4236418;27;20112;-53
2022/01/02 01:06:41;;;;;;;13.00;8.02;;;;;;;20.85;57.10;100230.25;4226530;28;20340;-55
2022/01/02 01:08:43;;;;;;;13.27;8.15;;;;;;;20.85;57.10;100231.13;4228928;28;20044;-53
2022/01/02 01:10:45;;;;;;;10.52;7.80;;;;;;;20.86;57.09;100226.38;4226347;27;20101;-47
2022/01/02 01:13:00;;;;;;;15.55;8.27;;;;;;;20.83;56.99;100215.84;4223081;28;20039;-54
2022/01/02 01:15:04;;;;;;;13.77;8.00;;;;;;;20.83;56.89;100193.59;4225473;28;20097;-49
2022/01/02 01:17:06;;;;;;;14.40;8.93;;;;;;;20.84;57.05;100184.13;4222897;27;20097;-50
2022/01/02 01:19:08;;;;;;;13.95;8.20;;;;;;;20.81;56.90;100183.59;4230302;27;20047;-52
2022/01/02 01:21:10;;;;;;;18.90;8.75;;;;;;;20.81;56.91;100169.69;4239728;27;20047;-52
2022/01/02 01:23:17;;;;;;;11.82;7.80;;;;;;;20.80;57.00;100151.38;4223929;27;20061;-51
2022/01/02 01:25:23;;;;;;;11.80;8.45;;;;;;;20.80;57.26;100140.25;4227101;28;20424;-46
2022/01/02 01:27:25;;;;;;;11.85;8.15;;;;;;;20.81;57.14;100129.94;4219972;28;20040;-50
2022/01/02 01:29:33;;;;;;;16.52;8.85;;;;;;;20.80;56.83;100123.56;4228292;28;20051;-53
2022/01/02 01:31:35;;;;;;;14.25;8.27;;;;;;;20.81;57.13;100122.44;4229375;28;20104;-48
2022/01/02 01:33:37;;;;;;;11.32;8.30;;;;;;;20.86;56.89;100126.28;4228359;27;20051;-53
2022/01/02 01:35:40;;;;;;;16.67;8.52;;;;;;;20.87;57.01;100122.34;4220878;28;20048;-51
2022/01/02 01:37:42;;;;;;;14.27;8.40;;;;;;;20.80;57.37;100106.88;4225714;28;20031;-51
2022/01/02 01:39:44;;;;;;;16.10;8.10;;;;;;;20.85;57.26;100085.66;4230423;28;20027;-46
2022/01/02 01:41:48;;;;;;;15.20;7.82;;;;;;;20.83;57.42;100062.91;4232399;27;20044;-52
2022/01/02 01:46:10;;;;;;;13.45;8.35;;;;;;;20.79;56.97;100027.34;4228630;28;20088;-49
2022/01/02 01:48:12;;;;;;;13.50;7.82;;;;;;;20.84;57.21;100028.41;4226421;27;20039;-52
2022/01/02 01:50:15;;;;;;;13.82;6.90;;;;;;;20.83;57.21;100023.97;4217167;28;20048;-50
2022/01/02 01:52:16;;;;;;;15.15;8.15;;;;;;;20.80;57.18;100012.34;4214554;28;20044;-52
2022/01/02 01:54:18;;;;;;;15.90;7.70;;;;;;;20.83;57.18;100004.50;4222270;28;20448;-48
2022/01/02 01:56:22;;;;;;;9.90;6.85;;;;;;;20.84;56.91;100006.16;4228230;28;20092;-52
2022/01/02 01:58:24;;;;;;;13.20;7.82;;;;;;;20.83;56.92;99998.94;4217694;28;20024;-51
2022/01/02 02:00:26;;;;;;;17.52;7.45;;;;;;;20.84;57.33;99995.03;4221437;28;20044;-52
2022/01/02 02:02:28;;;;;;;11.20;7.40;;;;;;;20.83;57.16;99999.78;4229558;28;20048;-49
2022/01/02 02:04:30;;;;;;;12.98;7.22;;;;;;;20.81;56.94;100005.66;4215184;28;20040;-52
2022/01/02 02:06:34;;;;;;;10.15;7.07;;;;;;;20.83;57.22;100010.06;4226961;28;20049;-49
2022/01/02 02:08:36;;;;;;;10.38;6.70;;;;;;;20.83;57.33;99991.44;4222994;27;20389;-47
2022/01/02 02:10:40;;;;;;;11.13;7.20;;;;;;;20.81;57.03;99988.97;4224305;27;20069;-51
2022/01/02 02:12:45;;;;;;;13.27;6.85;;;;;;;20.81;57.01;99982.56;4226402;28;20512;-47
2022/01/02 02:14:47;;;;;;;10.48;6.63;;;;;;;20.84;56.87;99989.47;4225840;28;20039;-53
2022/01/02 02:16:51;;;;;;;9.85;6.65;;;;;;;20.83;57.19;100008.13;4228518;28;20088;-50
2022/01/02 02:18:54;;;;;;;11.93;7.07;;;;;;;20.84;57.14;99995.84;4222816;27;20112;-53
2022/01/02 02:20:56;;;;;;;12.00;6.82;;;;;;;20.83;57.00;100010.91;4223145;28;20039;-47
2022/01/02 02:22:59;;;;;;;9.65;6.50;;;;;;;20.81;56.95;100002.88;4224277;28;20036;-48
2022/01/02 02:25:01;;;;;;;10.20;7.07;;;;;;;20.84;57.07;100000.59;4238395;27;20111;-47
2022/01/02 02:27:06;;;;;;;14.20;9.25;;;;;;;20.83;56.83;99985.88;4219287;27;20040;-53
2022/01/02 02:29:14;;;;;;;9.57;6.63;;;;;;;20.84;57.28;100011.72;4223176;27;20034;-46
2022/01/02 02:31:15;;;;;;;9.65;5.80;;;;;;;20.84;57.29;100011.72;4227250;28;20105;-51
2022/01/02 02:33:18;;;;;;;8.93;6.55;;;;;;;20.84;57.00;100001.41;4226271;28;20036;-51
2022/01/02 02:35:20;;;;;;;10.57;6.20;;;;;;;20.84;56.94;100003.38;4218598;28;20039;-48
2022/01/02 02:37:22;;;;;;;10.55;6.32;;;;;;;20.80;56.94;99995.66;4229167;28;20040;-48
2022/01/02 02:39:24;;;;;;;10.38;6.53;;;;;;;20.81;57.09;100005.66;4197973;28;20454;-51
2022/01/02 02:41:31;;;;;;;10.40;5.50;;;;;;;20.81;57.29;100025.09;4218885;28;20097;-49
2022/01/02 02:43:43;;;;;;;8.98;6.25;;;;;;;20.85;56.83;100018.91;4225769;28;20567;-52
2022/01/02 02:50:48;;;;;;;9.88;5.80;;;;;;;20.83;56.98;100108.22;4220891;28;20105;-51
2022/01/02 02:52:50;;;;;;;8.70;6.38;;;;;;;20.84;56.96;100103.47;4215917;28;20040;-52
2022/01/02 02:54:51;;;;;;;10.88;6.18;;;;;;;20.85;57.11;100196.88;4223351;28;20035;-48
2022/01/02 02:56:59;;;;;;;10.13;5.65;;;;;;;20.80;57.09;100139.41;4230438;27;20108;-49
2022/01/02 02:59:05;;;;;;;10.75;6.38;;;;;;;20.78;56.80;100106.34;4226959;28;20040;-49
2022/01/02 03:01:10;;;;;;;8.02;5.47;;;;;;;20.83;56.89;100133.25;4231741;27;20047;-48
2022/01/02 03:03:15;;;;;;;9.85;5.25;;;;;;;20.83;56.75;100110.16;4225692;28;20035;-48
2022/01/02 03:05:17;;;;;;;8.02;5.43;;;;;;;20.85;56.87;100064.28;4224304;28;20047;-52
2022/01/02 03:07:21;;;;;;;9.25;5.95;;;;;;;20.85;56.68;100091.22;4224953;27;20031;-53
2022/01/02 03:09:38;;;;;;;9.02;5.70;;;;;;;20.85;57.19;100111.53;4222979;28;20048;-49
2022/01/02 03:11:41;;;;;;;6.43;5.10;;;;;;;20.86;57.11;100098.47;4223253;28;20043;-52
2022/01/02 03:13:45;;;;;;;10.32;5.05;;;;;;;20.85;57.18;100096.78;4225595;28;20047;-49
2022/01/02 03:15:47;;;;;;;12.73;5.32;;;;;;;20.85;57.06;100094.00;4227504;27;20112;-52
2022/01/02 03:17:49;;;;;;;7.28;5.13;;;;;;;20.85;57.06;100080.09;4225519;27;20028;-56
2022/01/02 03:19:51;;;;;;;8.63;5.50;;;;;;;20.85;56.72;100071.75;4215645;28;20040;-56
2022/01/02 03:21:53;;;;;;;7.05;5.15;;;;;;;20.84;56.86;100072.88;4219173;28;20047;-55
2022/01/02 03:23:55;;;;;;;7.47;5.30;;;;;;;20.85;56.83;100052.28;4229614;28;20483;-49
2022/01/02 03:25:57;;;;;;;9.57;5.18;;;;;;;20.76;56.95;100030.75;4228177;28;20028;-53
2022/01/02 03:27:59;;;;;;;7.70;4.70;;;;;;;20.83;56.88;100044.25;4231159;28;20043;-51
2022/01/02 03:30:02;;;;;;;7.35;4.72;;;;;;;20.84;57.02;100034.78;4232002;28;20031;-51
2022/01/02 03:32:04;;;;;;;7.15;4.28;;;;;;;20.83;56.92;100033.13;4234073;28;20077;-53
2022/01/02 03:34:06;;;;;;;5.55;4.25;;;;;;;20.84;57.00;100045.91;4227443;28;20474;-53
2022/01/02 03:36:09;;;;;;;6.15;4.85;;;;;;;20.84;57.21;100048.69;4220655;28;20097;-48
2022/01/02 03:38:11;;;;;;;7.85;5.07;;;;;;;20.84;56.94;100039.53;4232624;28;20452;-50
2022/01/02 03:40:15;;;;;;;7.93;4.65;;;;;;;20.85;57.00;100041.16;4239506;28;20056;-49
2022/01/02 03:42:17;;;;;;;7.45;4.50;;;;;;;20.85;57.08;100057.84;4226944;28;20032;-53
2022/01/02 03:44:19;;;;;;;5.88;4.45;;;;;;;20.85;57.15;100043.94;4236519;28;20035;-54
2022/01/02 03:46:21;;;;;;;8.48;4.72;;;;;;;20.83;56.94;100015.63;4223396;28;20031;-52
2022/01/02 03:48:23;;;;;;;6.03;4.70;;;;;;;20.86;57.02;100020.59;4225249;28;20036;-52
2022/01/02 03:50:25;;;;;;;6.82;4.70;;;;;;;20.86;57.12;100029.75;4227483;28;20487;-52
2022/01/02 03:52:27;;;;;;;9.68;4.50;;;;;;;20.84;56.92;100025.63;4229081;28;20039;-51
2022/01/02 03:54:29;;;;;;;6.68;4.40;;;;;;;20.85;56.80;100018.91;4223978;28;20035;-52
2022/01/02 03:56:30;;;;;;;6.40;4.15;;;;;;;20.85;57.18;100022.56;4229242;28;20456;-53
2022/01/02 03:58:32;;;;;;;5.43;3.78;;;;;;;20.85;56.90;100024.47;4230632;28;20043;-52
2022/01/02 04:00:34;;;;;;;6.05;4.78;;;;;;;20.83;56.91;100019.22;4221959;28;20120;-53
2022/01/02 04:02:37;;;;;;;6.72;4.43;;;;;;;20.84;57.08;100017.28;4225729;28;20092;-53
2022/01/02 04:04:39;;;;;;;6.72;4.72;;;;;;;20.64;57.22;99983.13;4219370;28;20449;-50
2022/01/02 04:06:41;;;;;;;7.40;4.93;;;;;;;20.84;57.03;100004.19;4229554;28;20584;-48
2022/01/02 04:08:46;;;;;;;10.60;4.05;;;;;;;20.83;57.17;99985.88;4203775;28;20085;-48
2022/01/02 04:10:48;;;;;;;5.72;4.47;;;;;;;20.84;56.78;99983.91;4226319;28;20436;-48
2022/01/02 04:12:50;;;;;;;5.85;3.85;;;;;;;20.84;56.73;99978.34;4220007;28;20032;-53
2022/01/02 04:14:51;;;;;;;8.70;4.38;;;;;;;20.84;56.87;99964.44;4230492;28;20036;-54
2022/01/02 04:16:53;;;;;;;11.05;4.85;;;;;;;20.83;56.96;99957.25;4229976;28;20047;-58
2022/01/02 04:18:54;;;;;;;6.93;3.80;;;;;;;20.84;56.91;99967.22;4231198;27;20101;-54
2022/01/02 04:20:56;;;;;;;6.20;3.60;;;;;;;20.80;56.79;99967.00;4228549;27;20035;-59
2022/01/02 04:22:58;;;;;;;6.93;4.30;;;;;;;20.84;57.10;99973.59;4229772;28;20043;-57
2022/01/02 04:25:07;;;;;;;7.78;4.05;;;;;;;20.79;56.94;99982.03;4226985;28;20087;-56
2022/01/02 04:27:08;;;;;;;5.53;3.60;;;;;;;20.84;56.80;99990.28;4217934;28;20113;-59
2022/01/02 04:29:10;;;;;;;6.72;3.50;;;;;;;20.86;56.63;99992.78;4234856;27;20096;-52
2022/01/02 04:31:12;;;;;;;4.38;3.80;;;;;;;20.85;56.70;100002.25;4236415;27;20567;-54
2022/01/02 04:33:14;;;;;;;5.88;3.70;;;;;;;20.83;57.13;100019.22;4226052;27;20032;-51
2022/01/02 04:35:18;;;;;;;6.18;3.75;;;;;;;20.83;56.85;100016.47;4227609;28;20096;-53
2022/01/02 04:37:20;;;;;;;5.35;3.50;;;;;;;20.85;56.90;99996.69;4230985;28;20379;-54
2022/01/02 04:39:22;;;;;;;8.77;4.00;;;;;;;20.83;56.85;99993.38;4230364;27;20080;-55
2022/01/02 04:41:24;;;;;;;5.90;3.70;;;;;;;20.80;56.86;99992.03;4239879;27;20435;-52
2022/01/02 04:43:25;;;;;;;6.65;3.53;;;;;;;20.84;56.96;99989.47;4224576;27;20044;-53
2022/01/02 04:45:27;;;;;;;7.22;3.60;;;;;;;20.85;56.78;100002.25;4225440;27;20096;-55
2022/01/02 04:47:29;;;;;;;5.03;3.63;;;;;;;20.85;56.59;100007.81;4229867;27;20544;-54
2022/01/02 04:49:30;;;;;;;4.53;3.05;;;;;;;20.84;56.78;100000.59;4223034;28;20487;-56
2022/01/02 04:51:32;;;;;;;5.40;3.20;;;;;;;20.83;56.61;100010.06;4221134;28;20136;-51
2022/01/02 04:53:36;;;;;;;7.20;4.10;;;;;;;20.85;56.66;100024.47;4226397;28;20173;-54
2022/01/02 04:55:38;;;;;;;5.93;3.72;;;;;;;20.85;56.66;100005.03;4226758;28;20089;-55
2022/01/02 04:57:40;;;;;;;8.05;4.10;;;;;;;20.86;56.55;100015.03;4224089;28;20112;-55
2022/01/02 04:59:41;;;;;;;7.55;4.75;;;;;;;20.85;56.65;100024.47;4229072;28;20490;-49
2022/01/02 05:01:46;;;;;;;8.48;5.13;;;;;;;20.84;56.84;100040.34;4224296;28;20036;-56
2022/01/02 05:03:48;;;;;;;8.05;5.72;;;;;;;20.85;56.65;100052.28;4222408;28;20107;-54
2022/01/02 05:05:49;;;;;;;6.90;4.93;;;;;;;20.84;57.02;100045.09;4230506;28;20070;-56
2022/01/02 05:07:54;;;;;;;7.90;5.70;;;;;;;20.84;56.58;100042.31;4216036;28;20039;-53
2022/01/02 05:09:56;;;;;;;10.90;6.57;;;;;;;20.84;56.59;100033.97;4230012;27;20493;-55
2022/01/02 05:11:57;;;;;;;12.02;6.63;;;;;;;20.85;56.74;100030.03;4231076;28;20040;-58
2022/01/02 05:13:59;;;;;;;11.70;6.35;;;;;;;20.85;56.71;100027.25;4226286;28;20124;-59
2022/01/02 05:16:01;;;;;;;10.93;6.50;;;;;;;20.84;56.80;100018.09;4228047;28;20093;-57
2022/01/02 05:18:02;;;;;;;12.10;7.05;;;;;;;20.85;56.71;100014.22;4225701;28;20047;-59
2022/01/02 05:20:05;;;;;;;11.57;7.35;;;;;;;20.86;56.59;100001.13;4220625;28;20059;-57
2022/01/02 05:22:06;;;;;;;10.05;6.63;;;;;;;20.85;56.75;100007.81;4220818;28;20487;-58
2022/01/02 05:24:08;;;;;;;12.02;7.43;;;;;;;20.83;56.75;99998.94;4222023;28;20080;-58
2022/01/02 05:26:13;;;;;;;13.05;8.18;;;;;;;20.85;56.96;99993.91;4228300;28;20119;-59
2022/01/02 05:28:15;;;;;;;11.68;7.65;;;;;;;20.84;56.83;99979.16;4226460;28;20110;-58
2022/01/02 05:30:20;;;;;;;12.18;7.38;;;;;;;20.85;57.03;99980.00;4220561;28;20093;-58
2022/01/02 05:32:21;;;;;;;9.90;7.43;;;;;;;20.83;56.72;99987.81;4224934;27;20491;-58
2022/01/02 05:34:23;;;;;;;13.32;7.97;;;;;;;20.85;56.79;99991.13;4225598;27;20436;-57
2022/01/02 05:36:25;;;;;;;11.95;8.25;;;;;;;20.85;57.00;99999.47;4219535;27;20069;-58
2022/01/02 05:38:27;;;;;;;11.60;7.53;;;;;;;20.84;57.00;99989.47;4228702;28;20389;-59
2022/01/02 05:40:31;;;;;;;12.65;8.35;;;;;;;20.79;57.06;99977.31;4208486;28;20066;-59
2022/01/02 05:42:32;;;;;;;13.07;7.43;;;;;;;20.84;57.11;99979.16;4220001;28;20070;-56
2022/01/02 05:44:34;;;;;;;13.10;7.82;;;;;;;20.84;56.97;99984.72;4217904;27;20456;-54
2022/01/02 05:46:35;;;;;;;11.38;8.00;;;;;;;20.83;56.96;99979.50;4226832;27;20487;-56
2022/01/02 05:48:37;;;;;;;11.90;8.05;;;;;;;20.85;56.76;99957.75;4223919;28;20031;-56
2022/01/02 05:50:38;;;;;;;14.23;8.15;;;;;;;20.85;57.08;99964.16;4230637;28;20028;-54
2022/01/02 05:52:48;;;;;;;10.77;7.53;;;;;;;20.83;57.01;99933.03;4225285;27;20092;-57
2022/01/02 05:54:50;;;;;;;20.38;7.88;;;;;;;20.88;56.92;99946.84;4178342;28;20445;-56
2022/01/02 05:56:51;;;;;;;23.77;7.70;;;;;;;20.90;56.82;99941.81;4227400;28;20499;-61
2022/01/02 05:58:52;;;;;;;17.05;8.15;;;;;;;20.90;57.11;99929.88;4222274;27;20044;-58
2022/01/02 06:00:54;;;;;;;15.20;7.43;;;;;;;20.87;57.09;99938.81;4229960;28;20044;-56
2022/01/02 06:03:01;;;;;;;14.45;7.40;;;;;;;20.88;56.86;99957.97;4231248;27;20043;-58
2022/01/02 06:05:03;;;;;;;16.67;7.38;;;;;;;20.83;56.96;99929.44;4218329;27;20487;-55
2022/01/02 06:07:05;;;;;;;15.40;8.40;;;;;;;20.88;57.03;99929.34;4216944;28;20044;-56
2022/01/02 06:09:06;;;;;;;17.55;7.30;;;;;;;20.89;57.11;99978.25;4222015;28;20048;-57
2022/01/02 06:11:08;;;;;;;13.48;7.68;;;;;;;20.88;57.47;100001.66;4225090;27;20104;-57
2022/01/02 06:13:15;;;;;;;15.48;6.93;;;;;;;20.88;57.04;100004.41;4221568;27;20047;-56
2022/01/02 06:15:17;;;;;;;17.00;7.30;;;;;;;20.89;57.04;100017.19;4206452;28;20094;-59
2022/01/02 06:17:18;;;;;;;12.00;7.43;;;;;;;20.88;56.89;100018.31;4218556;28;20055;-58
2022/01/02 06:19:19;;;;;;;11.88;6.53;;;;;;;20.89;57.03;100022.75;4213646;28;20101;-58
2022/01/02 06:21:21;;;;;;;14.60;7.43;;;;;;;20.89;57.28;100019.97;4228304;28;20044;-55
2022/01/02 06:23:22;;;;;;;11.98;6.70;;;;;;;20.88;57.16;100016.38;4222507;27;20494;-56
2022/01/02 06:25:23;;;;;;;14.25;6.45;;;;;;;20.88;57.02;100023.88;4216134;28;20039;-57
2022/01/02 06:27:28;;;;;;;10.85;7.13;;;;;;;20.87;57.26;100023.06;4214317;28;20429;-58
2022/01/02 06:29:29;;;;;;;12.13;6.68;;;;;;;20.88;56.93;100018.31;4228453;28;20102;-57
2022/01/02 06:31:39;;;;;;;12.70;6.32;;;;;;;20.87;57.29;100002.78;4229183;28;20059;-57
2022/01/02 06:33:40;;;;;;;11.85;6.88;;;;;;;20.88;57.25;99985.78;4224076;27;20040;-59
2022/01/02 06:35:44;;;;;;;16.23;6.93;;;;;;;20.88;57.25;99971.06;4225340;28;20044;-58
2022/01/02 06:37:45;;;;;;;10.73;6.43;;;;;;;20.87;57.24;99961.06;4223950;28;20040;-59
2022/01/02 06:39:53;;;;;;;11.27;6.82;;;;;;;20.86;57.11;99964.97;4215750;28;20105;-58
2022/01/02 06:41:54;;;;;;;16.65;7.25;;;;;;;20.87;56.79;99977.75;4218652;28;20064;-57
2022/01/02 06:43:58;;;;;;;14.25;6.55;;;;;;;20.87;57.20;99972.19;4218557;28;20299;-57
2022/01/02 06:45:59;;;;;;;9.95;6.10;;;;;;;20.86;57.30;99959.44;4222681;27;20093;-57
2022/01/02 06:48:04;;;;;;;13.07;6.28;;;;;;;20.86;56.98;99973.31;4225603;28;20052;-57
2022/01/02 06:50:06;;;;;;;11.32;6.78;;;;;;;20.83;57.07;99955.28;4213901;28;20078;-57
2022/01/02 06:52:08;;;;;;;12.98;5.97;;;;;;;20.85;56.92;99957.75;4225558;28;20039;-55
2022/01/02 06:54:09;;;;;;;10.05;6.43;;;;;;;20.86;57.13;99962.19;4231609;28;20523;-58
2022/01/02 06:56:11;;;;;;;11.27;6.55;;;;;;;20.85;57.21;99969.72;4230655;28;20043;-58
2022/01/02 06:58:13;;;;;;;11.60;6.38;;;;;;;20.84;57.18;99979.16;4227697;28;20036;-57
2022/01/02 07:00:15;;;;;;;9.30;5.60;;;;;;;20.78;57.19;99966.50;4228763;28;20560;-58
2022/01/02 07:02:17;;;;;;;11.48;5.97;;;;;;;20.85;57.31;99977.22;4218625;28;20036;-56
2022/01/02 07:04:19;;;;;;;12.38;6.65;;;;;;;20.81;57.13;99980.63;4231758;27;20490;-52
2022/01/02 07:06:23;;;;;;;9.95;5.90;;;;;;;20.82;57.24;99973.09;4229755;28;20045;-53
2022/01/02 07:08:24;;;;;;;10.40;5.70;;;;;;;20.83;57.44;99973.91;4228254;28;20119;-60
2022/01/02 07:10:26;;;;;;;9.88;6.05;;;;;;;20.78;57.25;99964.53;4227947;28;20284;-56
2022/01/02 07:12:33;;;;;;;9.52;5.85;;;;;;;20.84;57.51;99958.88;4223566;28;20097;-52
2022/01/02 07:14:34;;;;;;;14.05;5.85;;;;;;;20.86;57.19;99959.44;4229900;28;20040;-57
2022/01/02 07:16:36;;;;;;;8.70;5.63;;;;;;;20.85;57.59;99968.88;4219701;28;20078;-58
2022/01/02 07:18:37;;;;;;;8.52;5.80;;;;;;;20.85;57.53;99972.50;4221246;28;20568;-56
2022/01/02 07:20:41;;;;;;;9.95;5.72;;;;;;;20.86;57.57;99970.53;4229116;28;20116;-57
2022/01/02 07:22:47;;;;;;;9.52;6.25;;;;;;;20.84;57.23;99967.22;4229472;28;20031;-56
2022/01/02 07:24:51;;;;;;;10.20;5.60;;;;;;;20.85;57.68;99985.56;4227327;28;20396;-56
2022/01/02 07:26:53;;;;;;;8.80;5.57;;;;;;;20.85;57.63;100005.03;4226541;28;20069;-57
2022/01/02 07:28:54;;;;;;;8.57;5.30;;;;;;;20.85;57.61;100002.25;4198247;28;20044;-56
2022/01/02 07:30:56;;;;;;;9.68;6.18;;;;;;;20.86;57.61;100020.59;4225998;28;20113;-56
2022/01/02 07:33:02;;;;;;;9.82;5.70;;;;;;;20.87;57.44;100016.69;4208715;28;20081;-58
2022/01/02 07:35:06;;;;;;;8.75;5.45;;;;;;;20.86;57.75;100031.72;4228071;28;20039;-56
2022/01/02 07:37:11;;;;;;;9.75;5.60;;;;;;;20.86;57.72;100049.22;4228703;28;20620;-56
2022/01/02 07:39:13;;;;;;;;;;;;;;;20.84;57.40;100053.44;4228565;28;20035;-55
2022/01/02 07:41:14;;;;;;;10.27;5.68;;;;;;;20.90;57.39;100050.28;4225621;28;19969;-56
2022/01/02 07:43:16;;;;;;;9.70;5.53;;;;;;;20.89;57.62;100048.63;4212347;28;20441;-58
2022/01/02 07:45:17;;;;;;;9.38;5.18;;;;;;;20.84;57.51;100061.75;4226505;28;20147;-58
2022/01/02 07:47:19;;;;;;;8.90;5.63;;;;;;;20.86;57.40;100079.81;4231030;28;20035;-56
2022/01/02 07:49:20;;;;;;;8.35;5.28;;;;;;;20.81;57.70;100068.78;4225124;28;20074;-54
2022/01/02 07:51:25;;;;;;;7.60;5.00;;;;;;;20.85;57.38;100078.16;4229915;28;20047;-56
2022/01/02 07:53:26;;;;;;;7.37;5.00;;;;;;;20.85;57.55;100055.06;4230339;28;20051;-58
2022/01/02 07:55:27;;;;;;;9.63;5.63;;;;;;;20.85;57.50;100057.84;4222088;28;20758;-57
2022/01/02 07:57:29;;;;;;;7.22;5.05;;;;;;;20.83;57.46;100049.00;4219226;28;20040;-54
2022/01/02 07:59:31;;;;;;;9.38;5.40;;;;;;;20.85;57.37;100047.59;4231796;28;20101;-56
2022/01/02 08:01:33;;;;;;;7.07;5.03;;;;;;;20.85;57.86;100046.72;4207739;28;20479;-53
2022/01/02 08:03:38;;;;;;;8.73;5.63;;;;;;;20.84;57.91;100050.66;4227740;28;20109;-57
2022/01/02 08:05:40;;;;;;;10.05;4.65;;;;;;;20.83;57.99;100049.81;4232885;28;20089;-57
2022/01/02 08:07:41;;;;;;;10.77;5.40;;;;;;;20.83;57.98;100049.00;4232361;28;20032;-57
2022/01/02 08:09:45;;;;;;;10.50;5.65;;;;;;;20.83;57.64;100049.00;4233553;28;20092;-58
2022/01/02 08:11:47;;;;;;;7.10;4.80;;;;;;;20.83;57.68;100049.00;4231250;28;20052;-56
2022/01/02 08:13:49;;;;;;;8.68;4.70;;;;;;;20.83;57.73;100049.81;4228734;28;20044;-56
2022/01/02 08:15:50;;;;;;;12.30;5.93;;;;;;;20.83;57.98;100054.56;4207674;28;20047;-56
2022/01/02 08:17:52;;;;;;;10.20;5.20;;;;;;;20.81;57.64;100047.34;4223754;28;20543;-56
2022/01/02 08:19:54;;;;;;;10.60;5.43;;;;;;;20.81;57.98;100043.75;4219900;28;20531;-56
2022/01/02 08:21:58;;;;;;;8.40;5.03;;;;;;;20.82;57.78;100059.31;4217020;28;20105;-58
2022/01/02 08:23:59;;;;;;;8.43;5.30;;;;;;;20.83;57.93;100071.25;4222647;28;20040;-57
2022/01/02 08:26:04;;;;;;;8.45;4.35;;;;;;;20.81;57.89;100063.22;4234171;27;20047;-55
2022/01/02 08:28:09;;;;;;;;;;;;;;;20.80;58.04;100067.94;4220757;28;20100;-58
2022/01/02 08:30:13;;;;;;;8.57;4.93;;;;;;;20.83;57.83;100058.16;4231060;28;19968;-58
2022/01/02 08:32:15;;;;;;;7.72;4.97;;;;;;;20.88;57.76;100087.84;4222041;28;20048;-56
2022/01/02 08:34:16;;;;;;;7.25;5.07;;;;;;;20.86;57.62;100087.34;4208818;28;20044;-57
2022/01/02 08:36:18;;;;;;;7.45;5.00;;;;;;;20.87;57.88;100088.97;4225587;28;20048;-59
2022/01/02 08:38:23;;;;;;;9.80;4.60;;;;;;;20.85;58.20;100094.00;4217578;28;20449;-57
2022/01/02 08:40:24;;;;;;;7.82;4.75;;;;;;;20.87;58.01;100094.53;4227024;28;20097;-57
2022/01/02 08:42:26;;;;;;;7.45;4.28;;;;;;;20.83;58.02;100096.28;4218360;28;20040;-54
2022/01/02 08:44:27;;;;;;;7.95;4.80;;;;;;;20.84;58.23;100109.88;4198091;28;20082;-58
2022/01/02 08:46:29;;;;;;;8.30;4.85;;;;;;;20.84;58.03;100114.59;4225399;28;20551;-58
2022/01/02 08:48:30;;;;;;;9.68;5.10;;;;;;;20.84;58.01;100122.94;4224844;27;20019;-57
2022/01/02 08:50:32;;;;;;;7.47;4.47;;;;;;;20.85;58.01;100130.16;4224459;28;20036;-58
2022/01/02 08:52:33;;;;;;;6.95;4.60;;;;;;;20.80;58.37;100134.69;4230263;28;20486;-57
2022/01/02 08:54:35;;;;;;;11.63;4.70;;;;;;;20.86;58.24;100142.94;4233745;27;20036;-55
2022/01/02 08:56:36;;;;;;;9.95;5.68;;;;;;;20.84;58.41;100134.88;4219605;28;20086;-55
2022/01/02 08:58:38;;;;;;;7.05;4.55;;;;;;;20.79;58.23;100127.44;4219003;28;20124;-57
2022/01/02 09:00:42;;;;;;;8.27;4.90;;;;;;;20.81;58.48;100139.13;4228356;27;20442;-57
2022/01/02 09:02:43;;;;;;;6.63;4.10;;;;;;;20.85;58.44;100141.28;4221765;28;20552;-58
2022/01/02 09:04:45;;;;;;;6.93;4.38;;;;;;;20.85;58.25;100146.84;4216303;28;20390;-58
2022/01/02 09:06:47;;;;;;;9.35;4.78;;;;;;;20.83;58.33;100144.38;4229793;28;20039;-56
2022/01/02 09:08:48;;;;;;;7.35;4.10;;;;;;;20.86;58.53;100142.94;4226005;28;20035;-58
2022/01/02 09:10:49;;;;;;;6.25;4.25;;;;;;;20.85;58.34;100139.34;4232236;28;20096;-56
2022/01/02 09:12:51;;;;;;;9.00;4.25;;;;;;;20.86;58.53;100131.84;4227586;27;20039;-56
2022/01/02 09:14:52;;;;;;;7.72;4.40;;;;;;;20.87;58.60;100127.91;4215855;28;20479;-54
2022/01/02 09:16:54;;;;;;;8.20;4.45;;;;;;;20.88;58.70;100129.56;4222710;28;20048;-56
2022/01/02 09:18:55;;;;;;;9.25;4.10;;;;;;;20.88;58.29;100124.00;4225332;28;20036;-58
2022/01/02 09:21:03;;;;;;;8.15;4.40;;;;;;;20.88;58.48;100118.44;4230139;28;20036;-57
2022/01/02 09:23:04;;;;;;;7.57;4.05;;;;;;;20.88;58.78;100107.31;4230118;28;20097;-55
2022/01/02 09:25:18;;;;;;;7.22;4.10;;;;;;;20.87;58.63;100106.50;4232474;28;20048;-55
2022/01/02 09:27:20;;;;;;;4.78;3.53;;;;;;;20.87;58.71;100088.97;4231338;28;20035;-56
2022/01/02 09:29:21;;;;;;;7.32;4.90;;;;;;;20.86;58.47;100082.59;4226909;28;20100;-56
2022/01/02 09:31:23;;;;;;;7.20;4.15;;;;;;;20.88;58.54;100076.72;4230858;28;20077;-56
2022/01/02 09:33:24;;;;;;;12.18;4.88;;;;;;;20.89;58.80;100064.47;4227653;28;20043;-57
2022/01/02 09:35:29;;;;;;;9.02;4.40;;;;;;;20.88;58.74;100049.75;4217308;28;20044;-57
2022/01/02 09:37:30;;;;;;;10.48;4.35;;;;;;;20.90;58.68;100035.56;4206327;28;20036;-57
2022/01/02 09:39:43;;;;;;;6.72;4.32;;;;;;;20.90;58.88;100032.78;4228916;28;20116;-58